Time;durP1;ratioP1;P1;durP2;ratioP2;P2;SDS_P1;SDS_P2;PMS_P1;PMS_P2;Temp;Humidity;BMP_temperature;BMP_pressure;BME280_temperature;BME280_humidity;BME280_pressure;Samples;Min_cycle;Max_cycle;Signal;HPM_P1;HPM_P2
2023/10/15 07:43:08;;;;;;;;;10.00;9.00;;;;;;;;5105240;27;14484;-74
2023/10/15 07:45:34;;;;;;;;;7.00;7.00;;;;;;;;5108383;28;9526;-80
2023/10/15 07:48:01;;;;;;;;;8.00;7.00;;;;;;;;5108016;28;9278;-75
2023/10/15 07:50:26;;;;;;;;;8.67;7.00;;;;;;;;5106807;28;9139;-74
2023/10/15 07:52:52;;;;;;;;;7.00;6.00;;;;;;;;5108266;28;9152;-74
2023/10/15 07:55:17;;;;;;;;;8.00;8.00;;;;;;;;5107878;28;8887;-73
2023/10/15 07:57:43;;;;;;;;;7.00;7.00;;;;;;;;5108044;28;8838;-72
2023/10/15 08:00:14;;;;;;;;;7.33;6.33;;;;;;;;5107997;28;8819;-72
2023/10/15 08:02:41;;;;;;;;;8.25;6.50;;;;;;;;5107527;28;8827;-72
2023/10/15 08:05:06;;;;;;;;;7.25;7.00;;;;;;;;5107814;28;9573;-73
2023/10/15 08:07:32;;;;;;;;;8.67;7.00;;;;;;;;5106468;28;8837;-71
2023/10/15 08:09:57;;;;;;;;;7.33;7.33;;;;;;;;5106288;28;8888;-72
2023/10/15 08:12:22;;;;;;;;;7.00;7.00;;;;;;;;5107782;28;8788;-72
2023/10/15 08:14:48;;;;;;;;;7.00;7.00;;;;;;;;5107609;28;8800;-72
2023/10/15 08:17:13;;;;;;;;;7.00;5.33;;;;;;;;5107249;28;8845;-70
2023/10/15 08:19:39;;;;;;;;;8.00;8.00;;;;;;;;5107417;28;9506;-71
2023/10/15 08:22:04;;;;;;;;;4.00;3.00;;;;;;;;5107331;28;8827;-71
2023/10/15 08:24:29;;;;;;;;;6.67;6.00;;;;;;;;5107265;28;8796;-70
2023/10/15 08:28:48;;;;;;;;;7.67;7.00;;;;;;;;5125633;27;13378;-71
2023/10/15 08:31:14;;;;;;;;;9.00;6.00;;;;;;;;5128602;27;9155;-73
2023/10/15 08:33:39;;;;;;;;;12.00;8.00;;;;;;;;5128620;27;8956;-74
2023/10/15 08:36:04;;;;;;;;;9.67;9.67;;;;;;;;5128531;27;9334;-74
2023/10/15 08:38:30;;;;;;;;;15.50;11.25;;;;;;;;5128349;27;8938;-73
2023/10/15 08:40:55;;;;;;;;;24.00;20.75;;;;;;;;5128372;27;8887;-73
2023/10/15 08:43:21;;;;;;;;;12.67;10.67;;;;;;;;5128526;27;8785;-72
2023/10/15 08:45:46;;;;;;;;;11.00;10.00;;;;;;;;5126957;27;8812;-73
2023/10/15 08:48:12;;;;;;;;;18.75;13.50;;;;;;;;5128398;27;8829;-72
2023/10/15 08:50:37;;;;;;;;;14.00;11.33;;;;;;;;5128253;27;8789;-73
2023/10/15 08:53:04;;;;;;;;;6.33;6.33;;;;;;;;5126963;27;9526;-74
2023/10/15 08:55:32;;;;;;;;;9.00;7.00;;;;;;;;5128155;27;8836;-73
2023/10/15 08:57:58;;;;;;;;;11.33;7.00;;;;;;;;5128194;27;9429;-74
2023/10/15 09:00:27;;;;;;;;;10.67;8.00;;;;;;;;5128097;27;9182;-74
2023/10/15 09:02:53;;;;;;;;;4.00;4.00;;;;;;;;5120361;27;8835;-75
2023/10/15 09:05:19;;;;;;;;;7.67;7.00;;;;;;;;5110857;27;9273;-75
2023/10/15 09:07:47;;;;;;;;;12.33;10.33;;;;;;;;5106073;28;9359;-74
2023/10/15 09:10:13;;;;;;;;;14.00;10.00;;;;;;;;5106220;28;8810;-74
2023/10/15 09:12:39;;;;;;;;;12.50;12.50;;;;;;;;5107478;28;9413;-74
2023/10/15 09:15:11;;;;;;;;;13.50;11.50;;;;;;;;5107412;28;10296;-75
2023/10/15 09:17:37;;;;;;;;;10.33;9.67;;;;;;;;5106194;28;9593;-74
2023/10/15 09:20:03;;;;;;;;;8.00;7.33;;;;;;;;5107235;28;9328;-74
2023/10/15 09:22:29;;;;;;;;;4.00;4.00;;;;;;;;5107440;28;8800;-74
2023/10/15 09:24:54;;;;;;;;;11.00;8.00;;;;;;;;5107128;28;9411;-73
2023/10/15 09:27:20;;;;;;;;;10.67;7.00;;;;;;;;5106980;28;8854;-75
2023/10/15 09:29:45;;;;;;;;;6.67;4.67;;;;;;;;5105945;28;8795;-77
2023/10/15 09:32:11;;;;;;;;;7.00;5.33;;;;;;;;5127191;27;8940;-76
2023/10/15 09:34:39;;;;;;;;;7.33;6.00;;;;;;;;5127184;27;8804;-75
2023/10/15 09:37:06;;;;;;;;;6.25;6.00;;;;;;;;5127676;27;8859;-74
2023/10/15 09:39:31;;;;;;;;;6.00;5.00;;;;;;;;5117324;27;8796;-73
2023/10/15 09:41:57;;;;;;;;;8.00;5.33;;;;;;;;5113764;28;8974;-74
2023/10/15 09:44:23;;;;;;;;;9.00;5.00;;;;;;;;5112507;28;9543;-74
2023/10/15 09:46:48;;;;;;;;;12.00;11.00;;;;;;;;5112038;28;8829;-75
2023/10/15 09:49:13;;;;;;;;;6.33;6.33;;;;;;;;5113541;28;8788;-75
2023/10/15 09:51:40;;;;;;;;;5.33;3.00;;;;;;;;5112223;28;8828;-74
2023/10/15 09:54:06;;;;;;;;;10.00;7.33;;;;;;;;5112006;28;8805;-75
2023/10/15 09:56:34;;;;;;;;;1.67;0.00;;;;;;;;5112547;28;9327;-74
2023/10/15 09:59:02;;;;;;;;;13.00;11.67;;;;;;;;5104275;28;9277;-74
2023/10/15 10:01:29;;;;;;;;;6.00;6.00;;;;;;;;5092817;28;9257;-72
2023/10/15 10:04:19;;;;;;;;;12.33;12.33;;;;;;;;5105086;28;9029;-73
2023/10/15 10:06:47;;;;;;;;;10.00;9.00;;;;;;;;5111929;28;9292;-73
2023/10/15 10:09:16;;;;;;;;;12.25;8.25;;;;;;;;5113049;28;9290;-73
2023/10/15 10:11:51;;;;;;;;;7.00;5.33;;;;;;;;5113246;28;9684;-74
2023/10/15 10:14:39;;;;;;;;;9.33;9.33;;;;;;;;5113278;28;9963;-72
2023/10/15 10:17:05;;;;;;;;;15.67;12.33;;;;;;;;5113222;28;9171;-73
2023/10/15 10:19:31;;;;;;;;;10.50;8.00;;;;;;;;5104399;28;9175;-74
2023/10/15 10:21:56;;;;;;;;;10.00;7.33;;;;;;;;5092757;28;8800;-73
2023/10/15 10:24:23;;;;;;;;;7.00;6.00;;;;;;;;5092635;28;8834;-70
2023/10/15 10:26:56;;;;;;;;;10.00;8.33;;;;;;;;5092136;28;8815;-72
2023/10/15 10:29:26;;;;;;;;;4.25;4.00;;;;;;;;5092325;28;9036;-72
2023/10/15 10:31:56;;;;;;;;;6.00;5.00;;;;;;;;5092468;28;8788;-72
2023/10/15 10:34:30;;;;;;;;;2.25;2.00;;;;;;;;5108634;28;9780;-74
2023/10/15 10:36:56;;;;;;;;;9.50;6.75;;;;;;;;5111595;28;8817;-75
2023/10/15 10:39:22;;;;;;;;;8.67;6.00;;;;;;;;5112157;28;8789;-75
2023/10/15 10:42:05;;;;;;;;;7.00;6.25;;;;;;;;5111334;28;8873;-75
2023/10/15 10:44:30;;;;;;;;;4.25;4.25;;;;;;;;5112535;27;8811;-74
2023/10/15 10:46:56;;;;;;;;;4.33;2.67;;;;;;;;5112510;28;8816;-74
2023/10/15 10:49:27;;;;;;;;;5.00;3.00;;;;;;;;5111231;28;8797;-73
2023/10/15 10:52:05;;;;;;;;;4.75;3.50;;;;;;;;5111145;28;8888;-70
2023/10/15 10:54:31;;;;;;;;;8.00;6.33;;;;;;;;5110808;28;8821;-70
2023/10/15 10:56:59;;;;;;;;;2.67;2.00;;;;;;;;5110927;28;8991;-69
2023/10/15 10:59:25;;;;;;;;;2.75;2.75;;;;;;;;5110709;28;8801;-70
2023/10/15 11:01:50;;;;;;;;;1.00;1.00;;;;;;;;5110514;28;8812;-71
2023/10/15 11:04:16;;;;;;;;;4.00;3.00;;;;;;;;5112052;28;8889;-70
2023/10/15 11:06:51;;;;;;;;;3.00;3.00;;;;;;;;5112027;28;8774;-70
2023/10/15 11:09:16;;;;;;;;;6.00;4.50;;;;;;;;5112009;27;8800;-70
2023/10/15 11:11:52;;;;;;;;;3.00;3.00;;;;;;;;5110872;28;8801;-70
2023/10/15 11:14:22;;;;;;;;;4.00;2.50;;;;;;;;5111852;28;8823;-70
2023/10/15 11:16:48;;;;;;;;;5.25;3.00;;;;;;;;5111715;28;8932;-70
2023/10/15 11:19:13;;;;;;;;;1.33;0.00;;;;;;;;5111959;28;8809;-70
2023/10/15 11:21:40;;;;;;;;;4.00;3.33;;;;;;;;5111936;28;8805;-69
2023/10/15 11:24:09;;;;;;;;;5.00;5.00;;;;;;;;5111720;28;8792;-69
2023/10/15 12:59:55;;;;;;;;;2.00;0.25;;;;;;;;5084343;27;13457;-72
2023/10/15 13:02:21;;;;;;;;;4.75;1.25;;;;;;;;5014104;27;10178;-70
2023/10/15 13:04:48;;;;;;;;;2.00;1.00;;;;;;;;5043361;28;8838;-73
2023/10/15 13:07:14;;;;;;;;;4.50;3.75;;;;;;;;5027907;28;8818;-73
2023/10/15 13:09:39;;;;;;;;;1.00;1.00;;;;;;;;5031488;28;8827;-72
2023/10/15 13:12:09;;;;;;;;;1.00;1.00;;;;;;;;5047675;28;9510;-72
2023/10/15 13:14:34;;;;;;;;;1.25;0.75;;;;;;;;5040927;28;9573;-73
2023/10/15 13:17:00;;;;;;;;;1.00;1.00;;;;;;;;5027832;28;8944;-73
2023/10/15 13:19:26;;;;;;;;;1.00;1.00;;;;;;;;5027751;28;8829;-74
2023/10/15 13:21:51;;;;;;;;;2.00;1.00;;;;;;;;5027612;28;8826;-73
2023/10/15 13:24:16;;;;;;;;;3.00;1.00;;;;;;;;5027573;28;8806;-72
2023/10/15 13:26:45;;;;;;;;;0.00;0.00;;;;;;;;5027439;28;9524;-72
2023/10/15 13:29:10;;;;;;;;;5.00;2.50;;;;;;;;5027654;28;8818;-72
2023/10/15 13:31:35;;;;;;;;;2.00;1.00;;;;;;;;5027615;28;8822;-74
2023/10/15 13:34:01;;;;;;;;;2.00;1.00;;;;;;;;5040369;28;8802;-74
2023/10/15 13:36:27;;;;;;;;;0.00;0.00;;;;;;;;5047312;28;8880;-74
2023/10/15 13:38:53;;;;;;;;;3.75;1.00;;;;;;;;5046858;28;8819;-73
2023/10/15 13:41:20;;;;;;;;;2.33;1.00;;;;;;;;5046314;28;8893;-74
2023/10/15 13:43:46;;;;;;;;;1.33;1.00;;;;;;;;5046640;28;8800;-74
2023/10/15 13:46:11;;;;;;;;;0.67;0.67;;;;;;;;5044518;28;8884;-74
2023/10/15 13:48:36;;;;;;;;;1.00;1.00;;;;;;;;5046412;28;8811;-74
2023/10/15 13:51:02;;;;;;;;;2.00;2.00;;;;;;;;5046279;28;8898;-74
2023/10/15 13:53:30;;;;;;;;;2.00;1.00;;;;;;;;5046337;28;8818;-74
2023/10/15 13:55:55;;;;;;;;;2.50;2.00;;;;;;;;5046189;28;8909;-74
2023/10/15 13:58:21;;;;;;;;;1.00;1.00;;;;;;;;5044887;28;8847;-74
2023/10/15 14:00:46;;;;;;;;;1.00;1.00;;;;;;;;5045757;28;8831;-74
2023/10/15 14:03:11;;;;;;;;;2.67;0.00;;;;;;;;5045785;28;8822;-74
2023/10/15 14:05:38;;;;;;;;;1.00;0.67;;;;;;;;5045710;28;8800;-73
2023/10/15 14:08:04;;;;;;;;;0.75;0.75;;;;;;;;5045455;28;8796;-74
2023/10/15 14:10:30;;;;;;;;;1.50;0.00;;;;;;;;5036493;28;8804;-72
2023/10/15 14:12:55;;;;;;;;;1.25;1.00;;;;;;;;5032761;28;8819;-78
2023/10/15 14:15:21;;;;;;;;;1.00;1.00;;;;;;;;5028210;28;9633;-75
2023/10/15 14:17:46;;;;;;;;;2.33;1.00;;;;;;;;5021244;28;8983;-75
2023/10/15 14:20:15;;;;;;;;;1.00;1.00;;;;;;;;5032101;28;8894;-74
2023/10/15 14:22:41;;;;;;;;;2.00;0.00;;;;;;;;5032066;28;8815;-74
2023/10/15 14:25:07;;;;;;;;;1.33;0.67;;;;;;;;5032114;28;8973;-74
2023/10/15 14:27:32;;;;;;;;;0.00;0.00;;;;;;;;5032537;28;9522;-74
2023/10/15 14:29:58;;;;;;;;;1.67;1.67;;;;;;;;5032629;28;8877;-74
2023/10/15 14:32:23;;;;;;;;;2.00;2.00;;;;;;;;5032636;28;8799;-74
2023/10/15 14:34:48;;;;;;;;;3.00;2.00;;;;;;;;5032165;28;8808;-73
2023/10/15 14:37:13;;;;;;;;;1.33;1.00;;;;;;;;5032130;28;8843;-72
2023/10/15 14:39:39;;;;;;;;;2.00;1.00;;;;;;;;5030883;28;8913;-72
2023/10/15 14:42:05;;;;;;;;;2.00;1.67;;;;;;;;5032220;28;9725;-71
2023/10/15 14:44:30;;;;;;;;;2.67;1.00;;;;;;;;5031392;28;8815;-71
2023/10/15 14:46:56;;;;;;;;;0.00;0.00;;;;;;;;5026058;28;11524;-71
2023/10/15 14:49:21;;;;;;;;;1.00;0.00;;;;;;;;5032084;28;8824;-72
2023/10/15 14:51:46;;;;;;;;;4.00;1.00;;;;;;;;5031367;28;8835;-71
2023/10/15 14:54:12;;;;;;;;;5.00;1.00;;;;;;;;5031541;28;8812;-71
2023/10/15 14:56:37;;;;;;;;;2.00;1.00;;;;;;;;5031690;28;8831;-71
2023/10/15 14:59:02;;;;;;;;;2.00;1.00;;;;;;;;5031739;28;9589;-72
2023/10/15 15:01:28;;;;;;;;;1.00;1.00;;;;;;;;5031478;28;8816;-71
2023/10/15 15:03:54;;;;;;;;;2.00;1.00;;;;;;;;5031676;28;8812;-71
2023/10/15 15:06:20;;;;;;;;;1.75;0.00;;;;;;;;5031586;28;8803;-72
2023/10/15 15:08:45;;;;;;;;;2.00;2.00;;;;;;;;5030752;28;8900;-71
2023/10/15 15:11:11;;;;;;;;;4.00;3.67;;;;;;;;5031329;28;8788;-71
2023/10/15 15:13:36;;;;;;;;;1.00;1.00;;;;;;;;5031518;28;9718;-72
2023/10/15 15:16:02;;;;;;;;;2.00;0.00;;;;;;;;5027212;28;8795;-70
2023/10/15 15:18:27;;;;;;;;;1.00;1.00;;;;;;;;5010743;28;8869;-71
2023/10/15 15:21:01;;;;;;;;;1.67;1.67;;;;;;;;5011599;28;8806;-70
2023/10/15 15:23:26;;;;;;;;;0.00;0.00;;;;;;;;5018685;28;8915;-71
2023/10/15 15:25:52;;;;;;;;;1.33;0.00;;;;;;;;5011803;28;9517;-70
2023/10/15 15:28:17;;;;;;;;;3.00;1.00;;;;;;;;5012089;28;8794;-69
2023/10/15 15:30:42;;;;;;;;;1.00;1.00;;;;;;;;5011967;28;8817;-84
2023/10/15 15:33:11;;;;;;;;;4.00;1.00;;;;;;;;5017273;28;8911;-72
2023/10/15 15:35:37;;;;;;;;;11.00;11.00;;;;;;;;5031173;28;8954;-74
2023/10/15 15:38:02;;;;;;;;;5.67;2.33;;;;;;;;5022673;28;9482;-75
2023/10/15 15:40:28;;;;;;;;;1.00;1.00;;;;;;;;5030666;28;8926;-80
2023/10/15 15:42:53;;;;;;;;;2.00;2.00;;;;;;;;5031771;28;8796;-70
2023/10/15 15:45:18;;;;;;;;;1.00;1.00;;;;;;;;5031650;28;8796;-71
2023/10/15 15:47:43;;;;;;;;;4.67;3.00;;;;;;;;5031230;28;9681;-75
2023/10/15 15:50:11;;;;;;;;;1.00;1.00;;;;;;;;5029589;28;8823;-70
2023/10/15 15:52:36;;;;;;;;;1.67;1.00;;;;;;;;5028900;28;8828;-69
2023/10/15 15:55:04;;;;;;;;;2.00;0.00;;;;;;;;5029299;28;8897;-70
2023/10/15 15:57:29;;;;;;;;;3.25;2.00;;;;;;;;5028999;28;9059;-70
2023/10/15 15:59:55;;;;;;;;;1.00;1.00;;;;;;;;5029214;28;8859;-69
2023/10/15 16:02:20;;;;;;;;;2.00;2.00;;;;;;;;5028970;28;8842;-69
2023/10/15 16:04:45;;;;;;;;;3.67;2.00;;;;;;;;5029140;28;8941;-70
2023/10/15 16:07:10;;;;;;;;;2.00;1.00;;;;;;;;5027472;28;8836;-69
2023/10/15 16:09:36;;;;;;;;;1.00;1.00;;;;;;;;5030633;28;8823;-70
2023/10/15 16:12:01;;;;;;;;;0.33;0.33;;;;;;;;5031039;28;8815;-69
2023/10/15 16:14:26;;;;;;;;;1.00;1.00;;;;;;;;5030571;28;8842;-70
2023/10/15 16:16:51;;;;;;;;;2.33;1.67;;;;;;;;5030401;28;8811;-70
2023/10/15 16:19:17;;;;;;;;;2.00;1.00;;;;;;;;5030410;28;8874;-70
2023/10/15 16:21:42;;;;;;;;;1.33;1.00;;;;;;;;5030882;28;8788;-70
2023/10/15 16:24:09;;;;;;;;;1.00;0.67;;;;;;;;5030892;28;8804;-70
2023/10/15 16:26:35;;;;;;;;;4.00;1.00;;;;;;;;5030074;28;8812;-70
2023/10/15 16:29:00;;;;;;;;;4.00;1.33;;;;;;;;5030357;28;8887;-69
2023/10/15 16:31:25;;;;;;;;;2.33;1.00;;;;;;;;5029661;28;8923;-69
2023/10/15 16:33:50;;;;;;;;;1.00;1.00;;;;;;;;5028857;28;8936;-70
2023/10/15 16:36:16;;;;;;;;;3.00;2.00;;;;;;;;5029818;28;8808;-70
2023/10/15 16:38:41;;;;;;;;;2.67;2.67;;;;;;;;5030131;28;8876;-70
2023/10/15 16:41:08;;;;;;;;;3.00;3.00;;;;;;;;5030461;28;9546;-70
2023/10/15 16:43:33;;;;;;;;;3.00;3.00;;;;;;;;5030740;28;8926;-70
2023/10/15 16:45:59;;;;;;;;;1.67;1.67;;;;;;;;5030105;28;9338;-70
2023/10/15 16:48:25;;;;;;;;;2.00;2.00;;;;;;;;5029622;28;8839;-70
2023/10/15 16:50:51;;;;;;;;;3.00;2.00;;;;;;;;5020609;23;9083;-68
2023/10/15 16:53:16;;;;;;;;;6.00;3.00;;;;;;;;4981369;28;8831;-69
2023/10/15 16:55:42;;;;;;;;;3.00;1.00;;;;;;;;4979485;28;8836;-68
2023/10/15 16:58:07;;;;;;;;;2.00;2.00;;;;;;;;4979496;28;8845;-69
2023/10/15 17:00:33;;;;;;;;;3.00;3.00;;;;;;;;4981206;28;8840;-68
2023/10/15 17:02:59;;;;;;;;;2.00;1.33;;;;;;;;4982674;28;8828;-68
2023/10/15 17:05:24;;;;;;;;;3.67;1.33;;;;;;;;4981014;28;9034;-69
2023/10/15 17:07:50;;;;;;;;;2.33;1.00;;;;;;;;4979592;28;8826;-68
2023/10/15 17:10:15;;;;;;;;;4.33;3.00;;;;;;;;4980449;28;8797;-69
2023/10/15 17:12:41;;;;;;;;;5.33;3.67;;;;;;;;4981376;28;8887;-69
2023/10/15 17:15:11;;;;;;;;;2.00;1.67;;;;;;;;4978372;28;8862;-68
2023/10/15 17:17:36;;;;;;;;;3.33;1.67;;;;;;;;4983069;28;8974;-69
2023/10/15 17:20:02;;;;;;;;;2.00;2.00;;;;;;;;4990445;28;9818;-68
